createdAt,value
2017-06-25T00:00:48.853Z,1005.17
2017-06-25T00:01:48.837Z,1005.17
2017-06-25T00:02:48.822Z,1005.17
2017-06-25T00:03:48.814Z,1005.19
2017-06-25T00:04:48.846Z,1005.19
2017-06-25T00:05:48.788Z,1005.13
2017-06-25T00:06:48.765Z,1005.11
2017-06-25T00:07:48.748Z,1005.12
2017-06-25T00:08:48.746Z,1005.11
2017-06-25T00:09:48.719Z,1005.13
2017-06-25T00:10:48.759Z,1005.13
2017-06-25T00:11:48.688Z,1005.13
2017-06-25T00:12:48.679Z,1005.13
2017-06-25T00:13:48.659Z,1005.11
2017-06-25T00:14:48.651Z,1005.11
2017-06-25T00:15:48.634Z,1005.08
2017-06-25T00:16:48.620Z,1005.07
2017-06-25T00:17:48.601Z,1005.1
2017-06-25T00:18:48.586Z,1005.13
2017-06-25T00:19:48.578Z,1005.03
2017-06-25T00:20:48.558Z,1005.06
2017-06-25T00:21:48.548Z,1005.03
2017-06-25T00:22:48.528Z,1005.06
2017-06-25T00:23:48.521Z,1005.04
2017-06-25T00:24:48.500Z,1005.05
2017-06-25T00:25:48.484Z,1005.02
2017-06-25T00:26:48.470Z,1005.06
2017-06-25T00:27:48.457Z,1005.06
2017-06-25T00:28:48.440Z,1005
2017-06-25T00:29:48.428Z,1004.97
2017-06-25T00:30:48.410Z,1004.99
2017-06-25T00:31:48.395Z,1004.9
2017-06-25T00:32:48.385Z,1004.89
2017-06-25T00:33:48.368Z,1004.91
2017-06-25T00:34:48.352Z,1004.86
2017-06-25T00:35:48.336Z,1004.83
2017-06-25T00:36:48.330Z,1004.82
2017-06-25T00:37:48.309Z,1004.87
2017-06-25T00:38:48.294Z,1004.82
2017-06-25T00:39:48.281Z,1004.82
2017-06-25T00:40:48.269Z,1004.83
2017-06-25T00:41:48.250Z,1004.8
2017-06-25T00:42:48.244Z,1004.78
2017-06-25T00:43:48.228Z,1004.78
2017-06-25T00:44:48.209Z,1004.84
2017-06-25T00:45:48.196Z,1004.83
2017-06-25T00:46:48.175Z,1004.81
2017-06-25T00:47:48.164Z,1004.77
2017-06-25T00:48:48.148Z,1004.75
2017-06-25T00:49:48.138Z,1004.71
2017-06-25T00:50:48.120Z,1004.66
2017-06-25T00:51:48.108Z,1004.68
2017-06-25T00:52:48.098Z,1004.69
2017-06-25T00:53:48.079Z,1004.66
2017-06-25T00:54:48.061Z,1004.68
2017-06-25T00:55:48.049Z,1004.65
2017-06-25T00:56:48.039Z,1004.66
2017-06-25T00:57:48.018Z,1004.63
2017-06-25T00:58:48.004Z,1004.64
2017-06-25T00:59:47.989Z,1004.61
2017-06-25T01:00:47.976Z,1004.62
2017-06-25T01:01:47.962Z,1004.59
2017-06-25T01:02:47.950Z,1004.6
2017-06-25T01:03:47.929Z,1004.59
2017-06-25T01:04:47.919Z,1004.63
2017-06-25T01:05:47.902Z,1004.56
2017-06-25T01:06:47.888Z,1004.64
2017-06-25T01:07:47.877Z,1004.62
2017-06-25T01:08:47.860Z,1004.62
2017-06-25T01:09:47.849Z,1004.58
2017-06-25T01:10:47.829Z,1004.54
2017-06-25T01:11:47.819Z,1004.58
2017-06-25T01:12:47.804Z,1004.54
2017-06-25T01:13:47.791Z,1004.51
2017-06-25T01:14:47.768Z,1004.57
2017-06-25T01:15:47.759Z,1004.55
2017-06-25T01:16:47.747Z,1004.53
2017-06-25T01:17:47.726Z,1004.54
2017-06-25T01:18:47.710Z,1004.5
2017-06-25T01:19:47.697Z,1004.5
2017-06-25T01:20:47.676Z,1004.47
2017-06-25T01:21:47.662Z,1004.5
2017-06-25T01:22:47.650Z,1004.49
2017-06-25T01:23:47.636Z,1004.47
2017-06-25T01:24:47.628Z,1004.46
2017-06-25T01:25:47.604Z,1004.52
2017-06-25T01:26:47.588Z,1004.45
2017-06-25T01:27:47.576Z,1004.43
2017-06-25T01:28:47.565Z,1004.44
2017-06-25T01:29:47.548Z,1004.4
2017-06-25T01:30:47.534Z,1004.42
2017-06-25T01:31:47.517Z,1004.33
2017-06-25T01:32:47.509Z,1004.46
2017-06-25T01:33:47.492Z,1004.4
2017-06-25T01:34:47.468Z,1004.38
2017-06-25T01:35:47.478Z,1004.37
2017-06-25T01:36:47.447Z,1004.4
2017-06-25T01:37:47.447Z,1004.39
2017-06-25T01:38:47.408Z,1004.39
2017-06-25T01:39:47.496Z,1004.35
2017-06-25T01:40:47.379Z,1004.35
2017-06-25T01:41:47.365Z,1004.33
2017-06-25T01:42:47.360Z,1004.34
2017-06-25T01:43:47.336Z,1004.38
2017-06-25T01:44:47.320Z,1004.29
2017-06-25T01:45:47.358Z,1004.3
2017-06-25T01:46:47.293Z,1004.27
2017-06-25T01:47:47.277Z,1004.24
2017-06-25T01:48:47.285Z,1004.2
2017-06-25T01:49:47.246Z,1004.2
2017-06-25T01:50:47.238Z,1004.26
2017-06-25T01:51:47.227Z,1004.22
2017-06-25T01:52:47.206Z,1004.22
2017-06-25T01:53:47.187Z,1004.17
2017-06-25T01:54:47.168Z,1004.17
2017-06-25T01:55:47.158Z,1004.2
2017-06-25T01:56:47.148Z,1004.15
2017-06-25T01:57:47.175Z,1004.19
2017-06-25T01:58:47.110Z,1004.18
2017-06-25T01:59:47.097Z,1004.21
2017-06-25T02:00:47.082Z,1004.17
2017-06-25T02:01:47.063Z,1004.16
2017-06-25T02:02:47.051Z,1004.15
2017-06-25T02:03:47.036Z,1004.16
2017-06-25T02:04:47.022Z,1004.16
2017-06-25T02:05:47.007Z,1004.12
2017-06-25T02:06:46.990Z,1004.11
2017-06-25T02:07:46.975Z,1004.08
2017-06-25T02:08:46.975Z,1004.18
2017-06-25T02:09:46.944Z,1004.09
2017-06-25T02:10:46.931Z,1004.05
2017-06-25T02:11:46.915Z,1004.07
2017-06-25T02:12:46.902Z,1004.03
2017-06-25T02:13:46.886Z,1003.99
2017-06-25T02:14:46.876Z,1004.02
2017-06-25T02:15:46.856Z,1003.99
2017-06-25T02:16:46.839Z,1003.99
2017-06-25T02:17:46.825Z,1003.95
2017-06-25T02:18:46.815Z,1003.91
2017-06-25T02:19:46.797Z,1003.93
2017-06-25T02:20:46.782Z,1003.91
2017-06-25T02:21:46.767Z,1003.91
2017-06-25T02:22:46.757Z,1003.93
2017-06-25T02:23:46.737Z,1003.91
2017-06-25T02:24:46.722Z,1003.93
2017-06-25T02:25:46.709Z,1003.86
2017-06-25T02:26:46.696Z,1003.95
2017-06-25T02:27:46.675Z,1003.86
2017-06-25T02:28:46.661Z,1003.92
2017-06-25T02:29:46.642Z,1003.94
2017-06-25T02:30:46.631Z,1003.91
2017-06-25T02:31:46.628Z,1003.94
2017-06-25T02:32:46.599Z,1003.92
2017-06-25T02:33:46.583Z,1003.97
2017-06-25T02:34:46.577Z,1003.96
2017-06-25T02:35:46.557Z,1003.99
2017-06-25T02:36:46.545Z,1003.95
2017-06-25T02:37:46.525Z,1003.94
2017-06-25T02:38:46.514Z,1003.93
2017-06-25T02:39:46.495Z,1003.95
2017-06-25T02:40:46.486Z,1003.97
2017-06-25T02:41:46.467Z,1003.96
2017-06-25T02:42:46.456Z,1003.96
2017-06-25T02:43:46.438Z,1003.95
2017-06-25T02:44:46.423Z,1003.93
2017-06-25T02:45:46.407Z,1003.93
2017-06-25T02:46:46.392Z,1003.93
2017-06-25T02:47:46.378Z,1003.94
2017-06-25T02:48:46.360Z,1003.95
2017-06-25T02:49:46.345Z,1003.95
2017-06-25T02:50:46.333Z,1003.88
2017-06-25T02:51:46.316Z,1003.93
2017-06-25T02:52:46.305Z,1003.98
2017-06-25T02:53:46.286Z,1003.94
2017-06-25T02:54:46.273Z,1003.95
2017-06-25T02:55:46.257Z,1003.89
2017-06-25T02:56:46.240Z,1003.93
2017-06-25T02:57:46.228Z,1003.93
2017-06-25T02:58:46.215Z,1003.88
2017-06-25T02:59:46.195Z,1003.9
2017-06-25T03:00:46.183Z,1003.9
2017-06-25T03:01:46.170Z,1003.91
2017-06-25T03:02:46.155Z,1003.92
2017-06-25T03:03:46.139Z,1003.9
2017-06-25T03:04:46.127Z,1003.89
2017-06-25T03:05:46.106Z,1003.85
2017-06-25T03:06:46.094Z,1003.86
2017-06-25T03:07:46.079Z,1003.88
2017-06-25T03:08:46.067Z,1003.81
2017-06-25T03:09:46.058Z,1003.8
2017-06-25T03:10:46.040Z,1003.8
2017-06-25T03:11:46.015Z,1003.75
2017-06-25T03:12:46.003Z,1003.75
2017-06-25T03:13:45.983Z,1003.74
2017-06-25T03:14:45.972Z,1003.7
2017-06-25T03:15:45.963Z,1003.71
2017-06-25T03:16:45.941Z,1003.75
2017-06-25T03:17:45.927Z,1003.7
2017-06-25T03:18:45.911Z,1003.73
2017-06-25T03:19:45.901Z,1003.73
2017-06-25T03:20:45.879Z,1003.76
2017-06-25T03:21:45.873Z,1003.69
2017-06-25T03:22:45.851Z,1003.73
2017-06-25T03:23:45.840Z,1003.73
2017-06-25T03:24:45.824Z,1003.68
2017-06-25T03:25:45.805Z,1003.65
2017-06-25T03:26:45.793Z,1003.65
2017-06-25T03:27:45.779Z,1003.65
2017-06-25T03:28:45.764Z,1003.64
2017-06-25T03:29:45.751Z,1003.65
2017-06-25T03:30:45.732Z,1003.65
2017-06-25T03:31:45.722Z,1003.7
2017-06-25T03:32:45.702Z,1003.66
2017-06-25T03:33:45.690Z,1003.67
2017-06-25T03:34:45.672Z,1003.65
2017-06-25T03:35:45.672Z,1003.66
2017-06-25T03:36:45.639Z,1003.7
2017-06-25T03:37:45.632Z,1003.66
2017-06-25T03:38:45.613Z,1003.72
2017-06-25T03:39:45.600Z,1003.69
2017-06-25T03:40:45.635Z,1003.64
2017-06-25T03:41:45.569Z,1003.63
2017-06-25T03:42:45.552Z,1003.65
2017-06-25T03:43:45.541Z,1003.63
2017-06-25T03:44:45.524Z,1003.64
2017-06-25T03:45:45.513Z,1003.6
2017-06-25T03:46:45.492Z,1003.6
2017-06-25T03:47:45.477Z,1003.57
2017-06-25T03:48:45.464Z,1003.61
2017-06-25T03:49:45.444Z,1003.53
2017-06-25T03:50:45.434Z,1003.53
2017-06-25T03:51:45.415Z,1003.57
2017-06-25T03:52:45.399Z,1003.54
2017-06-25T03:53:45.383Z,1003.54
2017-06-25T03:54:45.422Z,1003.57
2017-06-25T03:55:45.353Z,1003.6
2017-06-25T03:56:45.342Z,1003.61
2017-06-25T03:57:45.323Z,1003.6
2017-06-25T03:58:45.307Z,1003.6
2017-06-25T03:59:45.293Z,1003.63
2017-06-25T04:00:45.282Z,1003.59
2017-06-25T04:01:45.263Z,1003.57
2017-06-25T04:02:45.252Z,1003.55
2017-06-25T04:03:45.232Z,1003.57
2017-06-25T04:04:45.223Z,1003.56
2017-06-25T04:05:45.203Z,1003.57
2017-06-25T04:06:45.192Z,1003.53
2017-06-25T04:07:45.173Z,1003.56
2017-06-25T04:08:45.157Z,1003.56
2017-06-25T04:09:45.143Z,1003.59
2017-06-25T04:10:45.133Z,1003.55
2017-06-25T04:11:45.111Z,1003.55
2017-06-25T04:12:45.097Z,1003.55
2017-06-25T04:13:45.082Z,1003.54
2017-06-25T04:14:45.072Z,1003.47
2017-06-25T04:15:45.050Z,1003.5
2017-06-25T04:16:45.041Z,1003.49
2017-06-25T04:17:45.022Z,1003.53
2017-06-25T04:18:45.008Z,1003.51
2017-06-25T04:19:44.989Z,1003.51
2017-06-25T04:20:44.979Z,1003.55
2017-06-25T04:21:44.962Z,1003.55
2017-06-25T04:22:44.950Z,1003.57
2017-06-25T04:23:44.932Z,1003.56
2017-06-25T04:24:44.916Z,1003.53
2017-06-25T04:25:44.901Z,1003.55
2017-06-25T04:26:44.887Z,1003.52
2017-06-25T04:27:44.871Z,1003.5
2017-06-25T04:28:44.855Z,1003.49
2017-06-25T04:29:44.842Z,1003.54
2017-06-25T04:30:44.822Z,1003.46
2017-06-25T04:31:44.813Z,1003.47
2017-06-25T04:32:44.795Z,1003.51
2017-06-25T04:33:44.785Z,1003.49
2017-06-25T04:34:44.763Z,1003.46
2017-06-25T04:35:44.753Z,1003.49
2017-06-25T04:36:44.731Z,1003.51
2017-06-25T04:37:44.725Z,1003.46
2017-06-25T04:38:44.701Z,1003.54
2017-06-25T04:39:44.695Z,1003.52
2017-06-25T04:40:44.674Z,1003.49
2017-06-25T04:41:44.665Z,1003.5
2017-06-25T04:42:44.642Z,1003.47
2017-06-25T04:43:44.634Z,1003.48
2017-06-25T04:44:44.612Z,1003.46
2017-06-25T04:45:44.601Z,1003.43
2017-06-25T04:46:44.582Z,1003.45
2017-06-25T04:47:44.571Z,1003.43
2017-06-25T04:48:44.553Z,1003.46
2017-06-25T04:49:44.553Z,1003.43
2017-06-25T04:50:44.523Z,1003.47
2017-06-25T04:51:44.505Z,1003.41
2017-06-25T04:52:44.494Z,1003.42
2017-06-25T04:53:44.475Z,1003.48
2017-06-25T04:54:44.464Z,1003.44
2017-06-25T04:55:44.445Z,1003.44
2017-06-25T04:56:44.435Z,1003.44
2017-06-25T04:57:44.416Z,1003.37
2017-06-25T04:58:44.402Z,1003.35
2017-06-25T04:59:44.389Z,1003.35
2017-06-25T05:00:44.374Z,1003.32
2017-06-25T05:01:44.364Z,1003.31
2017-06-25T05:02:44.344Z,1003.31
2017-06-25T05:03:44.334Z,1003.31
2017-06-25T05:04:44.312Z,1003.33
2017-06-25T05:05:44.294Z,1003.32
2017-06-25T05:06:44.280Z,1003.34
2017-06-25T05:07:44.264Z,1003.36
2017-06-25T05:08:44.247Z,1003.32
2017-06-25T05:09:44.232Z,1003.38
2017-06-25T05:10:44.223Z,1003.32
2017-06-25T05:11:44.206Z,1003.33
2017-06-25T05:12:44.189Z,1003.3
2017-06-25T05:13:44.176Z,1003.27
2017-06-25T05:14:44.163Z,1003.32
2017-06-25T05:15:44.145Z,1003.32
2017-06-25T05:16:44.130Z,1003.29
2017-06-25T05:17:44.114Z,1003.33
2017-06-25T05:18:44.103Z,1003.28
2017-06-25T05:19:44.084Z,1003.3
2017-06-25T05:20:44.066Z,1003.34
2017-06-25T05:21:44.053Z,1003.32
2017-06-25T05:22:44.043Z,1003.3
2017-06-25T05:23:44.026Z,1003.28
2017-06-25T05:24:44.013Z,1003.26
2017-06-25T05:25:44.009Z,1003.24
2017-06-25T05:26:43.984Z,1003.23
2017-06-25T05:27:43.963Z,1003.26
2017-06-25T05:28:43.951Z,1003.28
2017-06-25T05:29:43.934Z,1003.21
2017-06-25T05:30:43.926Z,1003.23
2017-06-25T05:31:43.903Z,1003.25
2017-06-25T05:32:43.893Z,1003.23
2017-06-25T05:33:43.873Z,1003.3
2017-06-25T05:34:43.867Z,1003.29
2017-06-25T05:35:43.847Z,1003.26
2017-06-25T05:36:43.839Z,1003.31
2017-06-25T05:37:43.818Z,1003.24
2017-06-25T05:38:43.802Z,1003.32
2017-06-25T05:39:43.794Z,1003.32
2017-06-25T05:40:43.777Z,1003.25
2017-06-25T05:41:43.759Z,1003.31
2017-06-25T05:42:43.741Z,1003.29
2017-06-25T05:43:43.732Z,1003.31
2017-06-25T05:44:43.714Z,1003.32
2017-06-25T05:45:43.700Z,1003.31
2017-06-25T05:46:43.680Z,1003.28
2017-06-25T05:47:43.672Z,1003.29
2017-06-25T05:48:43.654Z,1003.26
2017-06-25T05:49:43.644Z,1003.23
2017-06-25T05:50:43.624Z,1003.25
2017-06-25T05:51:43.610Z,1003.24
2017-06-25T05:52:43.594Z,1003.19
2017-06-25T05:53:43.577Z,1003.24
2017-06-25T05:54:43.567Z,1003.2
2017-06-25T05:55:43.548Z,1003.26
2017-06-25T05:56:43.533Z,1003.31
2017-06-25T05:57:43.521Z,1003.26
2017-06-25T05:58:43.504Z,1003.3
2017-06-25T05:59:43.493Z,1003.32
2017-06-25T06:00:43.474Z,1003.29
2017-06-25T06:01:43.463Z,1003.31
2017-06-25T06:02:43.445Z,1003.3
2017-06-25T06:03:43.430Z,1003.25
2017-06-25T06:04:43.414Z,1003.22
2017-06-25T06:05:43.400Z,1003.29
2017-06-25T06:06:43.384Z,1003.28
2017-06-25T06:07:43.367Z,1003.28
2017-06-25T06:08:43.355Z,1003.3
2017-06-25T06:09:43.338Z,1003.29
2017-06-25T06:10:43.326Z,1003.28
2017-06-25T06:11:43.313Z,1003.3
2017-06-25T06:12:43.296Z,1003.31
2017-06-25T06:13:43.283Z,1003.29
2017-06-25T06:14:43.268Z,1003.31
2017-06-25T06:15:43.255Z,1003.25
2017-06-25T06:16:43.237Z,1003.27
2017-06-25T06:17:43.224Z,1003.27
2017-06-25T06:18:43.205Z,1003.27
2017-06-25T06:19:43.194Z,1003.27
2017-06-25T06:20:43.185Z,1003.25
2017-06-25T06:21:43.169Z,1003.23
2017-06-25T06:22:43.149Z,1003.18
2017-06-25T06:23:43.135Z,1003.19
2017-06-25T06:24:43.116Z,1003.18
2017-06-25T06:25:43.105Z,1003.19
2017-06-25T06:26:43.085Z,1003.26
2017-06-25T06:27:43.074Z,1003.25
2017-06-25T06:28:43.064Z,1003.24
2017-06-25T06:29:43.055Z,1003.24
2017-06-25T06:30:43.034Z,1003.22
2017-06-25T06:31:43.016Z,1003.22
2017-06-25T06:32:43.004Z,1003.25
2017-06-25T06:33:43.030Z,1003.24
2017-06-25T06:34:42.977Z,1003.22
2017-06-25T06:35:42.959Z,1003.27
2017-06-25T06:36:42.943Z,1003.2
2017-06-25T06:37:42.924Z,1003.26
2017-06-25T06:38:42.915Z,1003.28
2017-06-25T06:39:42.896Z,1003.25
2017-06-25T06:40:42.896Z,1003.27
2017-06-25T06:41:42.867Z,1003.22
2017-06-25T06:42:42.855Z,1003.27
2017-06-25T06:43:42.844Z,1003.22
2017-06-25T06:44:42.824Z,1003.25
2017-06-25T06:45:42.809Z,1003.22
2017-06-25T06:46:42.802Z,1003.22
2017-06-25T06:47:42.784Z,1003.21
2017-06-25T06:48:42.768Z,1003.23
2017-06-25T06:49:42.755Z,1003.18
2017-06-25T06:50:42.742Z,1003.24
2017-06-25T06:51:42.726Z,1003.15
2017-06-25T06:52:42.714Z,1003.19
2017-06-25T06:53:42.704Z,1003.16
2017-06-25T06:54:42.683Z,1003.22
2017-06-25T06:55:42.674Z,1003.19
2017-06-25T06:56:42.654Z,1003.19
2017-06-25T06:57:42.644Z,1003.19
2017-06-25T06:58:42.638Z,1003.13
2017-06-25T06:59:42.633Z,1003.12
2017-06-25T07:00:42.600Z,1003.16
2017-06-25T07:01:42.587Z,1003.15
2017-06-25T07:02:42.572Z,1003.12
2017-06-25T07:03:42.566Z,1003.06
2017-06-25T07:04:42.547Z,1003.03
2017-06-25T07:05:42.532Z,1003.05
2017-06-25T07:06:42.517Z,1003.16
2017-06-25T07:07:42.502Z,1003.14
2017-06-25T07:08:42.484Z,1003.13
2017-06-25T07:09:42.473Z,1003.16
2017-06-25T07:10:42.456Z,1003.15
2017-06-25T07:11:42.447Z,1003.21
2017-06-25T07:12:42.468Z,1003.11
2017-06-25T07:13:42.417Z,1003.12
2017-06-25T07:14:42.427Z,1003.13
2017-06-25T07:15:42.386Z,1003.12
2017-06-25T07:16:42.376Z,1003.07
2017-06-25T07:17:42.366Z,1003.09
2017-06-25T07:18:42.381Z,1003.08
2017-06-25T07:19:42.336Z,1003.12
2017-06-25T07:20:42.324Z,1003.06
2017-06-25T07:21:42.301Z,1003.1
2017-06-25T07:22:42.296Z,1003.14
2017-06-25T07:23:42.274Z,1003.06
2017-06-25T07:24:42.266Z,1003.11
2017-06-25T07:25:42.245Z,1003.11
2017-06-25T07:26:42.238Z,1003.11
2017-06-25T07:27:42.224Z,1003.12
2017-06-25T07:28:42.204Z,1003.08
2017-06-25T07:29:42.197Z,1003.14
2017-06-25T07:30:42.174Z,1003.12
2017-06-25T07:31:42.164Z,1003.1
2017-06-25T07:32:42.148Z,1003.08
2017-06-25T07:33:42.139Z,1003.08
2017-06-25T07:34:42.126Z,1003.05
2017-06-25T07:35:42.105Z,1002.99
2017-06-25T07:36:42.095Z,1003.16
2017-06-25T07:37:42.081Z,1003.08
2017-06-25T07:38:42.066Z,1003.03
2017-06-25T07:39:42.057Z,1003.09
2017-06-25T07:40:42.044Z,1003.12
2017-06-25T07:41:42.025Z,1003.08
2017-06-25T07:42:42.012Z,1003.06
2017-06-25T07:43:42.002Z,1003.09
2017-06-25T07:44:41.982Z,1003.05
2017-06-25T07:45:41.977Z,1003.11
2017-06-25T07:46:41.953Z,1003.08
2017-06-25T07:47:41.939Z,1003.06
2017-06-25T07:48:41.927Z,1003.15
2017-06-25T07:49:41.917Z,1003.03
2017-06-25T07:50:41.905Z,1003.07
2017-06-25T07:51:41.884Z,1003.06
2017-06-25T07:52:41.874Z,1003.07
2017-06-25T07:53:41.854Z,1003.14
2017-06-25T07:54:41.843Z,1003.11
2017-06-25T07:55:41.829Z,1003.09
2017-06-25T07:56:41.812Z,1003.09
2017-06-25T07:57:41.804Z,1003.17
2017-06-25T07:58:41.788Z,1003.19
2017-06-25T07:59:41.774Z,1003.16
2017-06-25T08:00:41.764Z,1003.19
2017-06-25T08:01:41.742Z,1003.14
2017-06-25T08:02:41.732Z,1003.19
2017-06-25T08:03:41.725Z,1003.22
2017-06-25T08:04:41.702Z,1003.24
2017-06-25T08:05:41.692Z,1003.16
2017-06-25T08:06:41.672Z,1003.21
2017-06-25T08:07:41.665Z,1003.28
2017-06-25T08:08:41.644Z,1003.3
2017-06-25T08:09:41.630Z,1003.37
2017-06-25T08:10:41.624Z,1003.34
2017-06-25T08:11:41.611Z,1003.32
2017-06-25T08:12:41.593Z,1003.52
2017-06-25T08:13:41.578Z,1003.33
2017-06-25T08:14:41.561Z,1003.35
2017-06-25T08:15:41.550Z,1003.35
2017-06-25T08:16:41.534Z,1003.39
2017-06-25T08:17:41.517Z,1003.34
2017-06-25T08:18:41.510Z,1003.38
2017-06-25T08:19:41.491Z,1003.38
2017-06-25T08:20:41.482Z,1003.43
2017-06-25T08:21:41.468Z,1003.41
2017-06-25T08:22:41.451Z,1003.56
2017-06-25T08:23:41.445Z,1003.57
2017-06-25T08:24:41.421Z,1003.63
2017-06-25T08:25:41.411Z,1003.64
2017-06-25T08:26:41.400Z,1003.67
2017-06-25T08:27:41.380Z,1003.63
2017-06-25T08:28:41.368Z,1003.63
2017-06-25T08:29:41.362Z,1003.64
2017-06-25T08:30:41.341Z,1003.64
2017-06-25T08:31:41.329Z,1003.7
2017-06-25T08:32:41.311Z,1003.66
2017-06-25T08:33:41.303Z,1003.74
2017-06-25T08:34:41.291Z,1003.75
2017-06-25T08:35:41.280Z,1003.79
2017-06-25T08:36:41.261Z,1003.79
2017-06-25T08:37:41.252Z,1003.8
2017-06-25T08:38:41.229Z,1003.83
2017-06-25T08:39:41.291Z,1003.83
2017-06-25T08:40:41.204Z,1003.85
2017-06-25T08:41:41.191Z,1003.81
2017-06-25T08:42:41.176Z,1003.78
2017-06-25T08:43:41.267Z,1003.78
2017-06-25T08:44:41.149Z,1003.74
2017-06-25T08:45:41.236Z,1003.77
2017-06-25T08:46:41.130Z,1003.73
2017-06-25T08:47:41.110Z,1003.78
2017-06-25T08:48:41.098Z,1003.81
2017-06-25T08:49:41.180Z,1003.83
2017-06-25T08:50:41.065Z,1003.79
2017-06-25T08:51:41.091Z,1003.87
2017-06-25T08:52:41.038Z,1003.81
2017-06-25T08:53:41.130Z,1003.83
2017-06-25T08:54:41.011Z,1003.84
2017-06-25T08:55:41.011Z,1003.85
2017-06-25T08:56:40.982Z,1003.82
2017-06-25T08:57:40.971Z,1003.83
2017-06-25T08:58:40.954Z,1003.8
2017-06-25T08:59:40.941Z,1003.83
2017-06-25T09:00:40.932Z,1003.85
2017-06-25T09:01:40.922Z,1003.79
2017-06-25T09:02:40.905Z,1003.79
2017-06-25T09:03:40.889Z,1003.81
2017-06-25T09:04:40.878Z,1003.85
2017-06-25T09:05:40.872Z,1003.81
2017-06-25T09:06:40.848Z,1003.86
2017-06-25T09:07:40.831Z,1003.85
2017-06-25T09:08:40.823Z,1003.8
2017-06-25T09:09:40.806Z,1003.77
2017-06-25T09:10:40.796Z,1003.81
2017-06-25T09:11:40.794Z,1003.83
2017-06-25T09:12:40.765Z,1003.83
2017-06-25T09:13:40.752Z,1003.82
2017-06-25T09:14:40.750Z,1003.77
2017-06-25T09:15:40.726Z,1003.8
2017-06-25T09:16:40.714Z,1003.85
2017-06-25T09:17:40.701Z,1003.91
2017-06-25T09:18:40.688Z,1003.91
2017-06-25T09:19:40.673Z,1003.93
2017-06-25T09:20:40.661Z,1003.95
2017-06-25T09:21:40.650Z,1004
2017-06-25T09:22:40.633Z,1004.03
2017-06-25T09:23:40.619Z,1004.08
2017-06-25T09:24:40.619Z,1004.05
2017-06-25T09:25:40.593Z,1004.08
2017-06-25T09:26:40.583Z,1004.09
2017-06-25T09:27:40.570Z,1004.08
2017-06-25T09:28:40.563Z,1004.12
2017-06-25T09:29:40.544Z,1004.07
2017-06-25T09:30:40.530Z,1004.09
2017-06-25T09:31:40.523Z,1004.09
2017-06-25T09:32:40.501Z,1004.09
2017-06-25T09:33:40.499Z,1004.11
2017-06-25T09:34:40.480Z,1004.08
2017-06-25T09:35:40.463Z,1004.02
2017-06-25T09:36:40.450Z,1004.05
2017-06-25T09:37:40.440Z,1004.06
2017-06-25T09:38:40.421Z,1004.06
2017-06-25T09:39:40.411Z,1004.11
2017-06-25T09:40:40.400Z,1004.11
2017-06-25T09:41:40.387Z,1004.12
2017-06-25T09:42:40.373Z,1004.1
2017-06-25T09:43:40.359Z,1004.07
2017-06-25T09:44:40.350Z,1004.09
2017-06-25T09:45:40.331Z,1004.03
2017-06-25T09:46:40.322Z,1004.05
2017-06-25T09:47:40.310Z,1004.05
2017-06-25T09:48:40.289Z,1004.09
2017-06-25T09:49:40.287Z,1004.1
2017-06-25T09:50:40.263Z,1004.07
2017-06-25T09:51:40.250Z,1004.08
2017-06-25T09:52:40.248Z,1004.06
2017-06-25T09:53:40.225Z,1004.04
2017-06-25T09:54:40.212Z,1004.06
2017-06-25T09:55:40.201Z,1004.07
2017-06-25T09:56:40.187Z,1004.05
2017-06-25T09:57:40.174Z,1004.08
2017-06-25T09:58:40.162Z,1004.17
2017-06-25T09:59:40.151Z,1004.15
2017-06-25T10:00:40.141Z,1004.12
2017-06-25T10:01:40.122Z,1004.08
2017-06-25T10:02:40.113Z,1004.18
2017-06-25T10:03:40.101Z,1004.15
2017-06-25T10:04:40.090Z,1004.16
2017-06-25T10:05:40.071Z,1004.14
2017-06-25T10:06:40.072Z,1004.17
2017-06-25T10:07:40.055Z,1004.14
2017-06-25T10:08:40.044Z,1004.18
2017-06-25T10:09:40.025Z,1004.19
2017-06-25T10:10:40.030Z,1004.23
2017-06-25T10:11:40.003Z,1004.23
2017-06-25T10:12:39.983Z,1004.27
2017-06-25T10:13:39.967Z,1004.32
2017-06-25T10:14:39.962Z,1004.33
2017-06-25T10:15:39.950Z,1004.32
2017-06-25T10:16:39.979Z,1004.4
2017-06-25T10:17:39.917Z,1004.38
2017-06-25T10:18:39.963Z,1004.42
2017-06-25T10:19:39.891Z,1004.42
2017-06-25T10:20:39.882Z,1004.49
2017-06-25T10:21:39.871Z,1004.53
2017-06-25T10:22:39.857Z,1004.57
2017-06-25T10:23:39.842Z,1004.6
2017-06-25T10:24:39.834Z,1004.71
2017-06-25T10:25:39.814Z,1004.76
2017-06-25T10:26:39.801Z,1004.73
2017-06-25T10:27:39.794Z,1004.73
2017-06-25T10:28:39.781Z,1004.83
2017-06-25T10:29:39.765Z,1004.83
2017-06-25T10:30:39.757Z,1004.81
2017-06-25T10:31:39.732Z,1004.76
2017-06-25T10:32:39.721Z,1004.83
2017-06-25T10:33:39.714Z,1004.79
2017-06-25T10:34:39.721Z,1004.8
2017-06-25T10:35:39.684Z,1004.87
2017-06-25T10:36:39.670Z,1004.8
2017-06-25T10:37:39.652Z,1004.94
2017-06-25T10:38:39.643Z,1004.91
2017-06-25T10:39:39.631Z,1004.88
2017-06-25T10:40:39.612Z,1004.86
2017-06-25T10:41:39.601Z,1004.87
2017-06-25T10:42:39.581Z,1004.82
2017-06-25T10:43:39.574Z,1004.81
2017-06-25T10:44:39.557Z,1004.82
2017-06-25T10:45:39.541Z,1004.83
2017-06-25T10:46:39.530Z,1004.81
2017-06-25T10:47:39.525Z,1004.75
2017-06-25T10:48:39.511Z,1004.75
2017-06-25T10:49:39.493Z,1004.75
2017-06-25T10:50:39.492Z,1004.8
2017-06-25T10:51:39.459Z,1004.72
2017-06-25T10:52:39.449Z,1004.71
2017-06-25T10:53:39.433Z,1004.69
2017-06-25T10:54:39.423Z,1004.7
2017-06-25T10:55:39.414Z,1004.65
2017-06-25T10:56:39.391Z,1004.67
2017-06-25T10:57:39.378Z,1004.75
2017-06-25T10:58:39.373Z,1004.7
2017-06-25T10:59:39.352Z,1004.75
2017-06-25T11:00:39.346Z,1004.68
2017-06-25T11:01:39.329Z,1004.66
2017-06-25T11:02:39.313Z,1004.69
2017-06-25T11:03:39.295Z,1004.71
2017-06-25T11:04:39.288Z,1004.71
2017-06-25T11:05:39.282Z,1004.71
2017-06-25T11:06:39.256Z,1004.74
2017-06-25T11:07:39.239Z,1004.73
2017-06-25T11:08:39.235Z,1004.73
2017-06-25T11:09:39.225Z,1004.75
2017-06-25T11:10:39.214Z,1004.72
2017-06-25T11:11:39.192Z,1004.74
2017-06-25T11:12:39.172Z,1004.7
2017-06-25T11:13:39.163Z,1004.77
2017-06-25T11:14:39.152Z,1004.73
2017-06-25T11:15:39.145Z,1004.83
2017-06-25T11:16:39.122Z,1004.82
2017-06-25T11:17:39.111Z,1004.77
2017-06-25T11:18:39.104Z,1004.78
2017-06-25T11:19:39.084Z,1004.79
2017-06-25T11:20:39.075Z,1004.75
2017-06-25T11:21:39.061Z,1004.8
2017-06-25T11:22:39.042Z,1004.76
2017-06-25T11:23:39.083Z,1004.72
2017-06-25T11:24:39.019Z,1004.79
2017-06-25T11:25:39.010Z,1004.8
2017-06-25T11:26:39.000Z,1004.79
2017-06-25T11:27:38.989Z,1004.82
2017-06-25T11:28:38.965Z,1004.86
2017-06-25T11:29:38.963Z,1004.84
2017-06-25T11:30:38.939Z,1004.83
2017-06-25T11:31:38.922Z,1004.86
2017-06-25T11:32:39.014Z,1004.84
2017-06-25T11:33:38.900Z,1004.89
2017-06-25T11:34:38.883Z,1004.9
2017-06-25T11:35:38.870Z,1004.79
2017-06-25T11:36:38.860Z,1004.95
2017-06-25T11:37:38.855Z,1004.96
2017-06-25T11:38:38.833Z,1004.91
2017-06-25T11:39:38.821Z,1004.92
2017-06-25T11:40:38.806Z,1004.97
2017-06-25T11:41:38.792Z,1004.97
2017-06-25T11:42:38.780Z,1004.92
2017-06-25T11:43:38.767Z,1004.96
2017-06-25T11:44:38.758Z,1004.96
2017-06-25T11:45:38.744Z,1004.98
2017-06-25T11:46:38.734Z,1004.97
2017-06-25T11:47:38.718Z,1005.05
2017-06-25T11:48:38.713Z,1004.94
2017-06-25T11:49:38.696Z,1004.94
2017-06-25T11:50:38.695Z,1005.04
2017-06-25T11:51:38.681Z,1004.96
2017-06-25T11:52:38.664Z,1004.99
2017-06-25T11:53:38.654Z,1004.96
2017-06-25T11:54:38.642Z,1005
2017-06-25T11:55:38.635Z,1005.03
2017-06-25T11:56:38.618Z,1005.05
2017-06-25T11:57:38.612Z,1005.01
2017-06-25T11:58:38.598Z,1005.06
2017-06-25T11:59:38.583Z,1005.07
2017-06-25T12:00:38.571Z,1005.11
2017-06-25T12:01:38.564Z,1005.05
2017-06-25T12:02:38.557Z,1005.08
2017-06-25T12:03:38.541Z,1005.08
2017-06-25T12:04:38.526Z,1005.14
2017-06-25T12:05:38.514Z,1005.1
2017-06-25T12:06:38.504Z,1005.04
2017-06-25T12:07:38.499Z,1005.07